Hailey, ID

3:43 PM MDT on October 20, 2014 (GMT -0600)
Stanley | Change Station
CLOSE
Current Station
Airport
Location: Stanley,
Elevation: 6496 ft
Nearby Weather Stations
Active Advisory: Special Statement

Elev 6496 ft 44.17 °N, 114.93 °W | Updated 52 minutes ago

Partly Cloudy
Partly Cloudy
68 °F
Feels Like 68 °F
N
14
Wind Variable Wind from SSE
Gusts 25 mph

Today
High -- | Low -- °F
--% Chance of Precip.
Yesterday
High -- | Low -- °F
Precip. -- in
7:57 AM 6:45 PM
Waning Crescent, 9% visible
Pressure 29.77 in
Visibility -9999.0 miles
Clouds
Dew Point 28 °F
Humidity 22%
Rainfall 0.00 in
Snow Depth 0 in , 1 in
UV Not available.
Pollen 3.00 out of 12
Air Quality Not available.
Flu Activity Sporadic
METAR KSNT 202051Z AUTO 16012G22KT 20/M02 A2995 RMK AO1 SLP080 T02001022 56023

More Conditions Fewer Conditions

Pressure 29.77 in
Visibility -9999.0 miles
Clouds
Dew Point 28 °F
Humidity 22%
Rainfall 0.00 in
Snow Depth 0 in , 1 in
UV Not available.
Pollen 3.00 out of 12
Air Quality Not available.
Flu Activity Sporadic
METAR KSNT 202051Z AUTO 16012G22KT 20/M02 A2995 RMK AO1 SLP080 T02001022 56023

More Conditions Fewer Conditions

10-Day Weather Forecast

Almanac

Astronomy

Oct. 20, 2014 Rise Set
Actual Time 7:57 AM MDT 6:45 PM MDT
Civil Twilight 7:28 AM MDT 7:14 PM MDT
Nautical Twilight 6:55 AM MDT 7:48 PM MDT
Astronomical Twilight 6:22 AM MDT 8:21 PM MDT
Moon 4:44 AM MDT 5:15 PM MDT
Length of Visible Light 11h 46m
Length of Day
10h 48m
Waning Crescent, 9% of the Moon is Illuminated
Today
Waning Crescent
Oct 23
New
Oct 30
First Quarter
Nov 6
Full
Nov 14
Last Quarter

Today's Extremes

State Highs State Lows

Community

WunderPhotos

Upload Photos

1,763,527 photos uploaded!

WunderBlogs® & News

Nearby

Snow Depth

Station Depth Elevation
Dollarhide Summit 0 in 8420 ft
Lost-Wood Divide 1 in 7900 ft
Vienna Mine 0 in 8960 ft
Atlanta Summit 0 in 7580 ft
Hilts Creek 0 in 8000 ft

Earthquake Activity

City Distance Mag. Time & Date
No recent earthquake activity has been reported nearby.
Minimum magnitude displayed is 2.5.

Coastal Water Temperatures

Place Temperature
No Stations Reporting

Nearby Weather Stations